Alder Grove, Washington
Current Conditions -  °F | °C
As of 12:53 PM on Tuesday 21 Oct 2014 (Local Time) from KSHN Reporting Station
Overcast Overcast  
Wind Chill: 56°   Ceiling: 4600
Heat Index: 56°   Visibility: 10mi
Dew Point: 54°   Wind: 8mph
Humidity: 93%   Direction: 130°SE
Pressure: 29.89"   Gusts: NA
Location:  47.555°N, 123.746°W
Report Text: KSHN 211953Z AUTO 13007KT 10SM BKN046 OVC055 13/12 A2989 RMK AO2 RAE28 SLP124 P0000 T01330122 TSNO
Loading
Personal Weather Stations






























Interactive Weather Map
Tropical Storm Tracking
New forecast layout! Learn more

10-Day Weather Forecast

Advertisements
Track Severe Weather on mobile